Time;durP1;ratioP1;P1;durP2;ratioP2;P2;SDS_P1;SDS_P2;PMS_P1;PMS_P2;Temp;Humidity;BMP_temperature;BMP_pressure;BME280_temperature;BME280_humidity;BME280_pressure;Samples;Min_cycle;Max_cycle;Signal;HPM_P1;HPM_P2
2021/05/14 00:01:07;;;;;;;0.86;0.30;;;;;;;6.81;80.54;98535.97;2019846;78;23082;-79
2021/05/14 00:04:10;;;;;;;2.08;0.22;;;;;;;6.78;80.61;98535.13;2016982;80;20518;-78
2021/05/14 00:07:13;;;;;;;0.44;0.30;;;;;;;6.73;80.60;98536.88;2017776;80;20337;-78
2021/05/14 00:10:18;;;;;;;0.30;0.30;;;;;;;6.69;80.73;98542.91;2017253;80;20806;-79
2021/05/14 00:13:25;;;;;;;0.59;0.30;;;;;;;6.66;80.52;98547.22;2017753;80;20344;-79
2021/05/14 00:16:28;;;;;;;0.40;0.34;;;;;;;6.60;80.34;98543.78;2019346;77;21275;-79
2021/05/14 00:19:30;;;;;;;1.75;0.50;;;;;;;6.53;79.85;98548.13;2022901;80;20381;-79
2021/05/14 00:22:33;;;;;;;1.11;0.20;;;;;;;6.49;80.07;98543.84;2023048;80;21195;-79
2021/05/14 00:25:36;;;;;;;0.22;0.21;;;;;;;6.46;80.39;98540.38;2022815;80;20333;-78
2021/05/14 00:28:38;;;;;;;0.55;0.50;;;;;;;6.46;80.64;98537.78;2022956;80;20381;-78
2021/05/14 00:31:41;;;;;;;0.40;0.30;;;;;;;6.43;80.95;98538.66;2021992;77;22716;-79
2021/05/14 00:34:43;;;;;;;0.45;0.30;;;;;;;6.42;81.07;98536.94;2022587;80;20357;-79
2021/05/14 00:37:46;;;;;;;0.50;0.39;;;;;;;6.39;81.14;98533.53;2022188;80;20665;-79
2021/05/14 00:40:49;;;;;;;0.55;0.28;;;;;;;6.37;81.37;98536.09;2022664;80;20337;-79
2021/05/14 00:43:51;;;;;;;0.31;0.30;;;;;;;6.35;81.72;98537.84;2022823;80;20345;-79
2021/05/14 00:46:54;;;;;;;1.30;0.30;;;;;;;6.33;81.74;98537.84;2018860;78;21979;-79
2021/05/14 00:49:57;;;;;;;1.85;0.20;;;;;;;6.33;81.89;98540.41;2017789;80;20812;-80
2021/05/14 00:53:00;;;;;;;0.56;0.29;;;;;;;6.33;81.82;98532.69;2016950;80;20990;-78
2021/05/14 00:56:03;;;;;;;0.64;0.64;;;;;;;6.30;81.71;98535.25;2017338;80;20368;-78
2021/05/14 00:59:06;;;;;;;0.85;0.30;;;;;;;6.23;81.59;98535.25;2016993;80;20309;-78
2021/05/14 01:02:08;;;;;;;0.30;0.30;;;;;;;6.23;81.61;98543.00;2016147;78;21018;-78
2021/05/14 01:05:12;;;;;;;0.20;0.20;;;;;;;6.18;81.61;98543.00;2017197;80;20338;-79
2021/05/14 01:08:15;;;;;;;0.30;0.30;;;;;;;6.16;81.57;98536.13;2017534;80;20354;-79
2021/05/14 01:11:17;;;;;;;0.30;0.30;;;;;;;6.13;81.46;98538.72;2017279;80;20324;-78
2021/05/14 01:14:20;;;;;;;0.24;0.24;;;;;;;6.09;81.64;98537.84;2017159;80;20321;-79
2021/05/14 01:17:23;;;;;;;1.45;0.41;;;;;;;6.08;81.85;98536.13;2021209;78;20879;-79
2021/05/14 01:20:30;;;;;;;0.32;0.30;;;;;;;6.11;81.91;98535.28;2022569;80;20308;-79
2021/05/14 01:23:33;;;;;;;0.60;0.30;;;;;;;6.07;81.94;98537.84;2022160;80;20324;-78
2021/05/14 01:26:36;;;;;;;0.30;0.30;;;;;;;6.08;82.01;98538.69;2022606;80;20309;-79
2021/05/14 01:29:39;;;;;;;1.08;0.40;;;;;;;6.07;82.06;98534.41;2023046;80;20483;-78
2021/05/14 01:32:42;;;;;;;0.36;0.36;;;;;;;6.05;82.54;98539.56;2017100;78;21823;-79
2021/05/14 01:35:45;;;;;;;0.29;0.29;;;;;;;6.04;82.90;98540.41;2016835;80;20367;-79
2021/05/14 01:38:48;;;;;;;0.51;0.30;;;;;;;6.08;83.17;98541.28;2017788;80;20333;-79
2021/05/14 01:41:52;;;;;;;0.84;0.49;;;;;;;6.12;83.53;98545.59;2017985;80;20317;-79
2021/05/14 01:44:55;;;;;;;0.70;0.31;;;;;;;6.21;83.96;98530.09;2017694;80;20332;-79
2021/05/14 01:47:57;;;;;;;0.41;0.30;;;;;;;6.29;84.36;98528.41;2021218;78;23373;-79
2021/05/14 01:51:08;;;;;;;0.30;0.30;;;;;;;6.34;84.48;98530.97;2022946;80;20348;-79
2021/05/14 01:54:10;;;;;;;0.51;0.40;;;;;;;6.35;84.59;98530.94;2023634;80;20360;-79
2021/05/14 01:57:13;;;;;;;0.31;0.30;;;;;;;6.38;84.48;98535.25;2022422;80;20335;-79
2021/05/14 02:00:16;;;;;;;0.40;0.40;;;;;;;6.40;84.23;98533.50;2021045;78;21620;-78
2021/05/14 02:03:19;;;;;;;0.73;0.30;;;;;;;6.39;84.03;98536.09;2018271;80;20817;-79
2021/05/14 02:06:23;;;;;;;0.30;0.30;;;;;;;6.38;84.22;98535.25;2019898;80;20866;-79
2021/05/14 02:09:25;;;;;;;0.75;0.40;;;;;;;6.39;84.34;98531.81;2018726;80;20373;-79
2021/05/14 02:12:28;;;;;;;1.41;0.30;;;;;;;6.41;84.51;98532.66;2019460;80;20329;-79
2021/05/14 02:15:32;;;;;;;0.84;0.45;;;;;;;6.43;84.75;98536.09;2018231;77;21188;-79
2021/05/14 02:18:35;;;;;;;0.38;0.34;;;;;;;6.43;85.01;98533.50;2023751;80;20338;-79
2021/05/14 02:21:38;;;;;;;3.10;0.50;;;;;;;6.48;85.05;98524.06;2023792;80;20330;-79
2021/05/14 02:24:41;;;;;;;0.66;0.32;;;;;;;6.53;85.16;98524.91;2023100;80;20802;-79
2021/05/14 02:27:44;;;;;;;0.68;0.47;;;;;;;6.58;85.13;98522.31;2024273;80;20450;-78
2021/05/14 02:30:46;;;;;;;0.64;0.50;;;;;;;6.58;85.09;98509.41;2021417;78;22549;-79
2021/05/14 02:33:49;;;;;;;0.64;0.60;;;;;;;6.66;85.56;98516.28;2018227;80;20341;-78
2021/05/14 02:36:52;;;;;;;1.85;0.56;;;;;;;6.75;85.65;98519.69;2018824;80;20334;-79
2021/05/14 02:39:54;;;;;;;0.55;0.55;;;;;;;6.78;85.35;98514.50;2018902;80;21116;-80
2021/05/14 02:42:57;;;;;;;0.89;0.55;;;;;;;6.79;85.24;98517.06;2019701;80;20925;-79
2021/05/14 02:45:59;;;;;;;1.88;0.57;;;;;;;6.82;85.35;98516.19;2020519;77;21428;-79
2021/05/14 02:49:03;;;;;;;1.29;0.57;;;;;;;6.85;85.39;98518.78;2025618;80;20931;-80
2021/05/14 02:52:06;;;;;;;1.02;0.54;;;;;;;6.88;85.60;98519.63;2024610;80;20331;-79
2021/05/14 02:55:10;;;;;;;1.51;0.61;;;;;;;6.93;85.59;98522.19;2023635;80;20377;-79
2021/05/14 02:58:13;;;;;;;0.90;0.70;;;;;;;6.94;85.60;98517.03;2024685;80;20328;-78
2021/05/14 03:01:16;;;;;;;0.70;0.70;;;;;;;6.96;85.56;98517.88;2021083;80;21497;-79
2021/05/14 03:04:18;;;;;;;1.66;0.60;;;;;;;6.94;85.69;98516.16;2018542;80;20329;-79
2021/05/14 03:07:21;;;;;;;0.57;0.57;;;;;;;6.93;85.78;98515.31;2018447;80;20317;-79
2021/05/14 03:10:24;;;;;;;0.68;0.60;;;;;;;6.93;85.71;98515.31;2017531;80;20845;-78
2021/05/14 03:13:27;;;;;;;1.69;0.60;;;;;;;6.93;85.55;98510.16;2017468;80;20357;-79
2021/05/14 03:16:29;;;;;;;1.74;0.82;;;;;;;6.93;85.50;98511.88;2016457;80;20325;-78
2021/05/14 03:19:32;;;;;;;1.88;0.70;;;;;;;6.92;85.68;98515.31;2017484;80;20351;-78
2021/05/14 03:22:35;;;;;;;1.92;0.73;;;;;;;6.96;85.61;98517.00;2017469;80;20301;-78
2021/05/14 03:25:38;;;;;;;1.08;0.71;;;;;;;7.04;85.56;98511.84;2018267;80;20324;-78
2021/05/14 03:28:41;;;;;;;0.79;0.73;;;;;;;7.08;85.73;98518.69;2017912;80;20358;-78
2021/05/14 03:31:44;;;;;;;2.81;0.86;;;;;;;7.10;85.93;98519.53;2019651;77;21186;-78
2021/05/14 03:34:46;;;;;;;0.75;0.63;;;;;;;7.11;86.10;98524.69;2022565;80;21112;-78
2021/05/14 03:37:49;;;;;;;1.08;0.68;;;;;;;7.15;85.99;98520.38;2023370;80;20316;-78
2021/05/14 03:40:52;;;;;;;0.82;0.75;;;;;;;7.18;85.59;98516.06;2023383;80;20315;-78
2021/05/14 03:43:55;;;;;;;1.45;0.80;;;;;;;7.20;85.72;98521.22;2023285;80;20430;-80
2021/05/14 03:46:58;;;;;;;1.86;0.84;;;;;;;7.24;85.82;98522.91;2019186;78;20341;-79
2021/05/14 03:50:01;;;;;;;0.76;0.70;;;;;;;7.28;85.81;98516.88;2018418;80;20745;-79
2021/05/14 03:53:04;;;;;;;1.75;0.85;;;;;;;7.26;86.07;98514.31;2017626;80;21117;-79
2021/05/14 03:56:06;;;;;;;3.70;0.80;;;;;;;7.29;86.41;98521.16;2017706;80;20403;-78
2021/05/14 03:59:09;;;;;;;0.70;0.70;;;;;;;7.32;86.48;98517.72;2017256;80;20389;-79
2021/05/14 04:02:12;;;;;;;0.70;0.70;;;;;;;7.31;86.44;98516.00;2020768;78;23279;-79
2021/05/14 04:05:15;;;;;;;0.65;0.65;;;;;;;7.33;86.22;98514.25;2023779;80;20850;-79
2021/05/14 04:08:18;;;;;;;0.70;0.64;;;;;;;7.35;86.24;98513.38;2022944;80;20348;-79
2021/05/14 04:14:29;;;;;;;0.79;0.79;;;;;;;7.32;86.62;98515.97;2023412;80;20376;-79
2021/05/14 04:17:43;;;;;;;0.65;0.65;;;;;;;7.35;86.85;98520.25;2017714;78;30063;-78
2021/05/14 04:20:45;;;;;;;1.38;0.89;;;;;;;7.39;87.03;98514.25;2017797;80;20313;-79
2021/05/14 04:23:48;;;;;;;2.36;0.73;;;;;;;7.40;87.00;98521.97;2017797;80;20397;-78
2021/05/14 04:26:53;;;;;;;1.29;0.76;;;;;;;7.42;86.99;98521.97;2017791;80;20324;-81
2021/05/14 04:29:56;;;;;;;3.69;0.80;;;;;;;7.43;86.80;98524.53;2018025;80;20330;-79
2021/05/14 04:32:59;;;;;;;1.14;0.73;;;;;;;7.42;86.97;98521.97;2022624;80;21551;-79
2021/05/14 04:36:03;;;;;;;0.76;0.73;;;;;;;7.46;86.85;98521.06;2022276;80;20377;-79
2021/05/14 04:39:07;;;;;;;2.00;0.79;;;;;;;7.49;86.57;98527.06;2023425;80;20324;-80
2021/05/14 04:42:11;;;;;;;1.67;0.77;;;;;;;7.48;86.36;98530.53;2023010;80;20300;-79
2021/05/14 04:45:14;;;;;;;3.36;1.81;;;;;;;7.48;86.82;98529.66;2021823;78;26887;-78
2021/05/14 04:48:17;;;;;;;1.16;0.65;;;;;;;7.49;87.20;98532.22;2017986;80;20305;-79
2021/05/14 04:51:20;;;;;;;0.70;0.70;;;;;;;7.56;87.57;98533.06;2017356;80;20317;-79
2021/05/14 04:54:23;;;;;;;0.84;0.80;;;;;;;7.71;87.85;98532.09;2017545;80;20951;-79
2021/05/14 04:57:26;;;;;;;1.86;0.60;;;;;;;7.91;87.37;98529.41;2017485;80;20358;-79
2021/05/14 05:00:28;;;;;;;1.66;0.96;;;;;;;8.11;86.88;98536.13;2020402;77;23519;-79
2021/05/14 05:03:31;;;;;;;2.66;0.90;;;;;;;8.34;86.17;98537.66;2022322;80;20361;-79
2021/05/14 05:06:34;;;;;;;0.88;0.63;;;;;;;8.75;85.09;98534.66;2022679;80;20200;-80
2021/05/14 05:09:37;;;;;;;0.95;0.70;;;;;;;9.16;83.56;98531.59;2023464;80;20712;-78
2021/05/14 05:12:40;;;;;;;1.79;0.77;;;;;;;9.39;82.22;98539.91;2022728;80;20186;-78
2021/05/14 05:15:42;;;;;;;1.40;0.99;;;;;;;9.29;81.62;98538.31;2020849;78;20522;-79
2021/05/14 05:18:45;;;;;;;2.30;0.60;;;;;;;9.26;81.58;98540.09;2017528;80;20234;-78
2021/05/14 05:21:48;;;;;;;0.96;0.94;;;;;;;9.28;81.77;98539.19;2017429;80;20218;-78
2021/05/14 05:24:51;;;;;;;1.45;0.80;;;;;;;9.33;81.75;98534.81;2017746;80;20167;-78
2021/05/14 05:27:54;;;;;;;0.82;0.60;;;;;;;9.37;81.83;98533.91;2017014;80;20225;-78
2021/05/14 05:30:57;;;;;;;1.44;0.80;;;;;;;9.44;82.15;98539.84;2018008;78;50545;-79
2021/05/14 05:34:00;;;;;;;0.65;0.60;;;;;;;9.49;81.65;98540.63;2022945;80;20183;-78
2021/05/14 05:37:03;;;;;;;1.41;0.84;;;;;;;9.69;81.66;98542.94;2022312;80;20175;-78
2021/05/14 05:40:06;;;;;;;1.04;0.69;;;;;;;10.44;79.43;98541.78;2023289;80;20179;-78
2021/05/14 05:43:09;;;;;;;2.16;0.51;;;;;;;10.30;78.98;98536.84;2021618;80;20183;-78
2021/05/14 05:46:12;;;;;;;0.94;0.66;;;;;;;10.69;78.53;98540.47;2020189;80;20845;-78
2021/05/14 05:49:14;;;;;;;1.16;0.70;;;;;;;11.55;75.06;98547.38;2016671;80;20183;-77
2021/05/14 05:52:17;;;;;;;1.64;0.63;;;;;;;12.00;72.73;98539.44;2017702;80;20207;-77
2021/05/14 05:55:20;;;;;;;1.65;0.65;;;;;;;11.53;73.34;98543.09;2017743;80;20225;-78
2021/05/14 05:58:23;;;;;;;1.02;0.70;;;;;;;11.52;73.96;98552.66;2015538;80;20183;-78
2021/05/14 06:01:26;;;;;;;1.00;0.65;;;;;;;11.77;73.19;98556.41;2016896;78;23937;-78
2021/05/14 06:04:29;;;;;;;1.21;0.81;;;;;;;11.67;72.73;98547.13;2020066;80;20163;-77
2021/05/14 06:07:32;;;;;;;1.29;0.91;;;;;;;11.52;73.17;98550.06;2020018;80;20507;-78
2021/05/14 06:10:35;;;;;;;1.76;0.68;;;;;;;11.44;73.46;98552.81;2021275;80;20741;-78
2021/05/14 06:13:38;;;;;;;0.91;0.60;;;;;;;12.14;72.54;98552.13;2023895;80;20226;-79
2021/05/14 06:16:41;;;;;;;1.04;0.60;;;;;;;12.78;70.61;98545.28;2019262;78;20205;-80
2021/05/14 06:19:50;;;;;;;1.30;0.69;;;;;;;13.28;68.28;98554.31;2019039;80;20192;-76
2021/05/14 06:22:53;;;;;;;1.67;0.71;;;;;;;14.05;67.32;98551.13;2018460;80;20192;-78
2021/05/14 06:26:02;;;;;;;;;;;;;;;14.74;63.41;98546.25;2017775;80;20298;-78
2021/05/14 06:29:04;;;;;;;1.02;0.59;;;;;;;14.46;63.86;98554.16;2019916;80;20143;-79
2021/05/14 06:32:07;;;;;;;0.96;0.50;;;;;;;14.78;62.87;98558.28;2023593;77;22388;-79
2021/05/14 06:35:10;;;;;;;1.59;0.50;;;;;;;15.00;61.24;98551.41;2022789;80;20281;-76
2021/05/14 06:38:13;;;;;;;0.75;0.40;;;;;;;15.19;60.71;98553.34;2023782;80;20187;-77
2021/05/14 06:41:15;;;;;;;1.19;0.49;;;;;;;15.57;60.39;98554.53;2024627;80;20226;-76
2021/05/14 06:44:18;;;;;;;0.54;0.38;;;;;;;16.00;57.97;98562.47;2023072;80;20163;-76
2021/05/14 06:47:21;;;;;;;0.99;0.34;;;;;;;16.05;56.94;98553.56;2018292;78;21886;-77
2021/05/14 06:50:24;;;;;;;2.70;0.40;;;;;;;16.19;55.65;98554.72;2018473;80;20331;-76
2021/05/14 06:53:27;;;;;;;0.81;0.40;;;;;;;16.53;55.95;98558.59;2017844;80;20216;-77
2021/05/14 06:56:29;;;;;;;0.96;0.30;;;;;;;16.71;55.59;98563.09;2021740;80;20195;-78
2021/05/14 06:59:32;;;;;;;0.60;0.21;;;;;;;17.06;53.79;98553.69;2018739;80;20236;-77
2021/05/14 07:02:35;;;;;;;0.45;0.30;;;;;;;17.17;52.32;98555.81;2021951;77;20636;-77
2021/05/14 07:05:38;;;;;;;1.16;0.30;;;;;;;17.27;51.50;98553.66;2023864;80;20244;-78
2021/05/14 07:08:41;;;;;;;0.99;0.40;;;;;;;17.57;52.82;98554.88;2024230;80;20215;-78
2021/05/14 07:11:44;;;;;;;1.09;0.20;;;;;;;17.98;50.96;98555.59;2024518;80;20240;-77
2021/05/14 07:14:48;;;;;;;0.79;0.20;;;;;;;18.34;51.31;98555.59;2024137;80;20191;-77
2021/05/14 07:17:52;;;;;;;1.59;0.22;;;;;;;18.22;51.27;98548.31;2019504;78;27599;-78
2021/05/14 07:20:55;;;;;;;2.40;0.20;;;;;;;18.48;51.11;98554.88;2019244;80;20777;-77
2021/05/14 07:23:58;;;;;;;1.19;0.22;;;;;;;18.17;50.94;98558.19;2017771;80;20184;-77
2021/05/14 07:27:00;;;;;;;0.77;0.20;;;;;;;17.39;50.95;98555.72;2018561;80;20221;-78
2021/05/14 07:30:04;;;;;;;0.75;0.30;;;;;;;16.87;52.57;98556.25;2018130;80;20209;-77
2021/05/14 07:33:06;;;;;;;0.99;0.20;;;;;;;16.31;53.46;98558.59;2020147;78;20202;-78
2021/05/14 07:36:10;;;;;;;0.46;0.20;;;;;;;15.82;54.62;98565.81;2029356;80;20172;-78
2021/05/14 07:39:12;;;;;;;0.31;0.17;;;;;;;15.86;55.56;98556.94;2027796;80;20670;-80
2021/05/14 07:42:15;;;;;;;2.41;0.30;;;;;;;16.49;55.52;98560.47;2026857;80;20829;-79
2021/05/14 07:45:17;;;;;;;4.84;0.40;;;;;;;17.12;54.32;98556.03;2024807;78;21249;-79
2021/05/14 07:48:35;;;;;;;2.60;0.30;;;;;;;17.79;51.98;98560.03;2019327;80;20207;-78
2021/05/14 07:51:38;;;;;;;3.81;0.39;;;;;;;17.26;52.65;98560.69;2019755;80;20213;-78
2021/05/14 07:54:42;;;;;;;1.34;0.26;;;;;;;17.21;53.73;98557.38;2020867;80;20855;-81
2021/05/14 07:57:45;;;;;;;2.03;0.29;;;;;;;16.94;54.16;98556.84;2019471;80;20241;-78
2021/05/14 08:00:49;;;;;;;0.50;0.20;;;;;;;16.59;54.12;98555.69;2018722;77;20955;-77
2021/05/14 08:03:54;;;;;;;0.81;0.30;;;;;;;16.95;54.37;98558.56;2024436;80;20202;-78
2021/05/14 08:06:56;;;;;;;4.54;0.34;;;;;;;17.08;53.75;98562.34;2023340;80;20269;-77
2021/05/14 08:10:01;;;;;;;0.98;0.40;;;;;;;17.41;53.05;98557.34;2022588;80;20277;-78
2021/05/14 08:13:24;;;;;;;0.56;0.25;;;;;;;17.52;51.47;98557.72;2028912;80;20865;-78
2021/05/14 08:16:27;;;;;;;2.08;0.66;;;;;;;17.34;51.59;98555.06;2021786;78;22211;-78
2021/05/14 08:19:29;;;;;;;1.81;0.29;;;;;;;16.94;51.25;98559.47;2020825;80;20270;-78
2021/05/14 08:22:32;;;;;;;0.51;0.25;;;;;;;16.48;52.46;98565.78;2020947;80;20577;-78
2021/05/14 08:25:35;;;;;;;0.96;0.14;;;;;;;16.22;54.44;98570.31;2023082;80;20271;-78
2021/05/14 08:28:38;;;;;;;1.09;0.29;;;;;;;16.73;55.46;98568.25;2019124;80;20188;-77
2021/05/14 08:31:41;;;;;;;0.96;0.20;;;;;;;16.98;52.46;98558.41;2020210;77;23069;-78
2021/05/14 08:34:44;;;;;;;0.75;0.22;;;;;;;16.79;51.80;98555.72;2023747;80;20231;-77
2021/05/14 08:37:48;;;;;;;0.40;0.19;;;;;;;16.79;53.16;98562.75;2027198;80;20195;-77
2021/05/14 08:40:50;;;;;;;0.60;0.20;;;;;;;17.24;52.68;98559.91;2023796;80;20271;-79
2021/05/14 08:43:54;;;;;;;0.50;0.20;;;;;;;17.75;50.97;98553.19;2025076;80;20178;-79
2021/05/14 08:46:56;;;;;;;0.76;0.20;;;;;;;18.40;49.40;98550.03;2024191;78;21353;-79
2021/05/14 08:50:01;;;;;;;0.94;0.20;;;;;;;18.92;46.44;98557.94;2025592;80;20334;-79
2021/05/14 08:53:03;;;;;;;3.50;0.20;;;;;;;19.36;43.93;98554.75;2026097;80;20598;-79
2021/05/14 08:56:06;;;;;;;0.75;0.20;;;;;;;19.96;45.12;98557.66;2024018;80;20906;-74
2021/05/14 08:59:09;;;;;;;0.59;0.20;;;;;;;19.94;41.86;98551.63;2021670;80;20175;-74
2021/05/14 09:02:13;;;;;;;0.61;0.20;;;;;;;20.00;43.19;98547.78;2017764;78;20511;-74
2021/05/14 09:05:23;;;;;;;0.85;0.20;;;;;;;19.83;42.62;98560.09;2017389;80;20254;-74
2021/05/14 09:08:28;;;;;;;3.50;0.30;;;;;;;19.17;44.74;98557.50;2017409;80;20211;-75
2021/05/14 09:11:36;;;;;;;0.66;0.20;;;;;;;18.76;46.08;98548.28;2017155;80;20176;-75
2021/05/14 09:14:44;;;;;;;0.61;0.20;;;;;;;18.51;46.73;98544.25;2016630;80;21180;-74
2021/05/14 09:18:07;;;;;;;;;;;;;;;18.17;44.07;98541.59;2019384;80;26885;-75
2021/05/14 09:21:09;;;;;;;0.24;0.10;;;;;;;17.90;44.03;98541.13;2020331;80;20066;-75
2021/05/14 09:24:12;;;;;;;0.66;0.20;;;;;;;17.53;44.86;98553.31;2020433;80;21029;-73
2021/05/14 09:27:38;;;;;;;1.67;0.30;;;;;;;17.36;45.61;98550.59;2020211;80;20208;-73
2021/05/14 09:31:17;;;;;;;0.29;0.10;;;;;;;17.29;46.12;98547.41;2017749;78;20171;-73
2021/05/14 09:34:32;;;;;;;1.69;0.23;;;;;;;17.17;46.36;98559.31;2013327;80;20163;-73
2021/05/14 09:37:47;;;;;;;0.75;0.20;;;;;;;16.94;46.88;98554.22;2016188;80;20420;-73
2021/05/14 09:40:49;;;;;;;0.70;0.11;;;;;;;16.72;47.64;98554.31;2016414;80;20175;-73
2021/05/14 09:44:05;;;;;;;1.01;0.20;;;;;;;17.06;47.87;98551.06;2017000;80;20287;-73
2021/05/14 09:47:08;;;;;;;1.00;0.21;;;;;;;17.95;47.24;98539.97;2018874;78;20359;-73
2021/05/14 09:50:30;;;;;;;1.98;0.24;;;;;;;18.89;45.20;98544.97;2022317;80;20171;-72
2021/05/14 09:53:33;;;;;;;1.42;0.10;;;;;;;18.87;43.55;98552.06;2024685;80;20195;-72
2021/05/14 09:56:37;;;;;;;0.29;0.11;;;;;;;18.48;44.14;98538.25;2022234;80;20182;-71
2021/05/14 09:59:42;;;;;;;0.84;0.26;;;;;;;18.90;43.40;98530.03;2021186;80;20714;-73
2021/05/14 10:02:46;;;;;;;0.81;0.20;;;;;;;19.14;43.62;98526.09;2016169;80;20601;-73
2021/05/14 10:05:50;;;;;;;1.45;0.20;;;;;;;18.87;42.60;98535.44;2016166;80;20180;-74
2021/05/14 10:08:55;;;;;;;0.99;0.10;;;;;;;18.08;43.19;98532.34;2016736;80;20167;-72
2021/05/14 10:11:58;;;;;;;0.89;0.20;;;;;;;18.09;44.83;98527.03;2016445;80;20236;-71
2021/05/14 10:15:05;;;;;;;0.63;0.20;;;;;;;18.94;44.95;98521.88;2016126;80;20322;-72
2021/05/14 10:18:19;;;;;;;1.19;0.20;;;;;;;19.83;44.39;98527.66;2022193;78;20227;-72
2021/05/14 10:21:22;;;;;;;0.20;0.15;;;;;;;20.31;41.49;98526.66;2022257;80;20239;-73
2021/05/14 10:24:54;;;;;;;0.33;0.23;;;;;;;20.66;40.02;98516.72;2021564;80;20211;-73
2021/05/14 10:28:05;;;;;;;0.57;0.20;;;;;;;20.66;40.15;98514.06;2021925;80;20980;-74
2021/05/14 10:31:09;;;;;;;0.30;0.15;;;;;;;20.01;39.24;98523.13;2019089;80;21532;-73
2021/05/14 10:34:16;;;;;;;0.77;0.30;;;;;;;19.57;40.69;98518.56;2016908;80;20245;-73
2021/05/14 10:37:44;;;;;;;0.74;0.30;;;;;;;19.15;43.00;98525.16;2016408;80;20716;-73
2021/05/14 10:40:47;;;;;;;0.97;0.20;;;;;;;19.07;43.10;98523.88;2017114;80;20195;-73
2021/05/14 10:44:04;;;;;;;0.29;0.10;;;;;;;19.46;43.64;98516.47;2016362;80;20214;-72
2021/05/14 10:47:25;;;;;;;0.99;0.21;;;;;;;19.87;42.33;98521.25;2020617;78;23510;-70
2021/05/14 10:50:40;;;;;;;0.95;0.29;;;;;;;20.40;39.65;98509.44;2021795;80;20203;-71
2021/05/14 10:53:46;;;;;;;1.20;0.28;;;;;;;21.11;40.85;98504.31;2022196;80;20637;-69
2021/05/14 10:56:49;;;;;;;2.10;0.25;;;;;;;21.40;39.78;98505.19;2021903;80;20224;-68
2021/05/14 10:59:52;;;;;;;0.98;0.31;;;;;;;21.71;38.04;98509.34;2021529;80;20159;-68
2021/05/14 11:03:10;;;;;;;1.67;0.20;;;;;;;21.73;38.65;98501.34;2015944;78;21691;-67
2021/05/14 11:06:19;;;;;;;0.40;0.20;;;;;;;21.87;37.83;98507.41;2017282;80;20201;-67
2021/05/14 11:09:24;;;;;;;1.15;0.20;;;;;;;22.02;35.98;98495.00;2017471;80;20167;-71
2021/05/14 11:12:28;;;;;;;0.82;0.20;;;;;;;22.13;38.84;98494.34;2017618;80;20597;-66
2021/05/14 11:15:34;;;;;;;0.34;0.10;;;;;;;21.70;35.98;98494.44;2017405;78;20183;-69
2021/05/14 11:18:49;;;;;;;0.74;0.20;;;;;;;21.37;37.84;98497.44;2022787;80;20240;-66
2021/05/14 11:22:04;;;;;;;0.47;0.20;;;;;;;20.89;36.52;98499.50;2022493;80;20180;-66
2021/05/14 11:25:17;;;;;;;0.46;0.16;;;;;;;20.46;38.32;98495.91;2022746;80;20163;-72
2021/05/14 11:28:20;;;;;;;0.84;0.20;;;;;;;20.14;37.90;98497.78;2022543;80;20183;-72
2021/05/14 11:31:25;;;;;;;1.90;0.20;;;;;;;19.67;38.45;98511.84;2019459;78;20180;-76
2021/05/14 11:34:31;;;;;;;1.09;0.17;;;;;;;19.20;40.24;98512.59;2017568;80;20294;-73
2021/05/14 11:37:36;;;;;;;0.57;0.39;;;;;;;18.62;42.27;98518.25;2017529;80;20618;-74
2021/05/14 11:40:40;;;;;;;0.51;0.19;;;;;;;18.09;45.13;98523.53;2014276;80;20213;-73
2021/05/14 11:43:59;;;;;;;0.68;0.20;;;;;;;17.62;47.06;98533.69;2017412;80;20215;-73
2021/05/14 11:47:02;;;;;;;0.89;0.24;;;;;;;17.13;50.24;98541.16;2020535;77;23076;-72
2021/05/14 11:50:07;;;;;;;0.91;0.21;;;;;;;16.98;51.79;98552.31;2022986;80;20166;-66
2021/05/14 11:53:11;;;;;;;0.57;0.20;;;;;;;16.54;51.64;98552.44;2022923;80;20255;-65
2021/05/14 11:56:14;;;;;;;1.16;0.20;;;;;;;16.22;52.95;98553.75;2022283;80;20263;-66
2021/05/14 11:59:21;;;;;;;1.54;0.24;;;;;;;16.17;52.70;98555.72;2022929;80;20690;-65
2021/05/14 12:02:39;;;;;;;1.05;0.26;;;;;;;16.09;52.80;98558.63;2017243;78;20771;-65
2021/05/14 12:05:44;;;;;;;1.13;0.20;;;;;;;16.14;53.52;98545.34;2017347;80;20423;-67
2021/05/14 12:08:47;;;;;;;0.43;0.20;;;;;;;16.15;53.36;98541.81;2017453;80;20176;-65
2021/05/14 12:11:50;;;;;;;0.68;0.30;;;;;;;16.30;53.28;98547.28;2016938;80;20187;-65
2021/05/14 12:15:21;;;;;;;1.46;0.20;;;;;;;16.31;51.06;98542.88;2017627;80;20187;-65
2021/05/14 12:18:23;;;;;;;0.77;0.15;;;;;;;16.37;49.65;98553.13;2018595;80;20697;-66
2021/05/14 12:21:28;;;;;;;0.26;0.10;;;;;;;16.41;47.81;98553.84;2017841;80;20183;-66
2021/05/14 12:24:38;;;;;;;0.88;0.20;;;;;;;16.51;47.29;98555.16;2016843;80;20573;-65
2021/05/14 12:27:42;;;;;;;0.43;0.10;;;;;;;16.77;46.86;98543.63;2015468;80;20248;-67
2021/05/14 12:30:45;;;;;;;0.86;0.19;;;;;;;17.24;48.06;98548.56;2017370;77;20674;-65
2021/05/14 12:33:57;;;;;;;1.24;0.30;;;;;;;17.95;45.60;98544.38;2021572;80;20179;-65
2021/05/14 12:37:00;;;;;;;1.04;0.20;;;;;;;18.66;43.23;98532.97;2021166;80;20175;-65
2021/05/14 12:40:05;;;;;;;1.36;0.20;;;;;;;19.02;42.00;98530.22;2022688;80;20642;-72
2021/05/14 12:43:14;;;;;;;0.77;0.28;;;;;;;19.48;40.41;98527.78;2018543;80;20925;-73
2021/05/14 12:46:16;;;;;;;0.57;0.21;;;;;;;19.87;40.22;98537.91;2018684;78;30964;-73
2021/05/14 12:49:19;;;;;;;1.64;0.20;;;;;;;19.94;38.24;98522.63;2016680;80;20311;-72
2021/05/14 12:52:37;;;;;;;2.44;0.20;;;;;;;20.19;37.07;98529.97;2016621;80;20971;-72
2021/05/14 12:55:40;;;;;;;2.59;0.40;;;;;;;20.27;37.55;98532.16;2017041;80;20706;-73
2021/05/14 12:58:54;;;;;;;1.04;0.20;;;;;;;20.42;35.91;98548.00;2016800;80;20221;-73
2021/05/14 13:01:57;;;;;;;0.69;0.10;;;;;;;20.29;37.94;98556.66;2018277;78;46407;-72
2021/05/14 13:05:11;;;;;;;0.51;0.28;;;;;;;20.13;37.13;98556.72;2022206;80;20243;-73
2021/05/14 13:08:16;;;;;;;0.89;0.20;;;;;;;19.98;36.43;98562.84;2021053;80;20404;-73
2021/05/14 13:11:25;;;;;;;1.46;0.20;;;;;;;19.96;37.91;98576.09;2021967;80;20770;-72
2021/05/14 13:14:28;;;;;;;2.83;0.20;;;;;;;19.64;38.61;98596.28;2021948;80;21171;-72
2021/05/14 13:17:44;;;;;;;0.45;0.20;;;;;;;19.01;39.05;98590.81;2016081;78;20740;-72
2021/05/14 13:20:47;;;;;;;0.29;0.10;;;;;;;18.41;39.35;98604.31;2016655;80;20172;-72
2021/05/14 13:23:59;;;;;;;1.36;0.20;;;;;;;17.79;40.84;98595.03;2017564;80;20310;-72
2021/05/14 13:27:02;;;;;;;1.73;0.20;;;;;;;17.35;42.16;98611.88;2016799;80;20321;-72
2021/05/14 13:30:10;;;;;;;0.19;0.03;;;;;;;16.97;41.79;98613.56;2016162;80;20233;-72
2021/05/14 13:33:13;;;;;;;3.00;0.10;;;;;;;16.78;42.05;98608.25;2022359;77;21730;-71
2021/05/14 13:36:19;;;;;;;1.06;0.10;;;;;;;16.59;43.01;98613.38;2021328;80;20281;-73
2021/05/14 13:39:23;;;;;;;0.39;0.10;;;;;;;16.57;43.80;98610.81;2021574;80;20822;-73
2021/05/14 13:42:26;;;;;;;0.75;0.14;;;;;;;16.55;42.12;98607.41;2022473;80;20262;-73
2021/05/14 13:45:29;;;;;;;1.09;0.11;;;;;;;16.70;43.51;98605.09;2017565;78;29491;-73
2021/05/14 13:48:32;;;;;;;1.01;0.20;;;;;;;16.87;43.20;98594.72;2016448;80;20512;-72
2021/05/14 13:51:36;;;;;;;0.35;0.14;;;;;;;17.01;43.04;98602.00;2016229;80;20188;-71
2021/05/14 13:54:39;;;;;;;0.20;0.10;;;;;;;17.26;43.48;98592.16;2016041;80;20183;-71
2021/05/14 13:57:44;;;;;;;0.75;0.20;;;;;;;17.52;43.22;98583.97;2016263;80;20322;-71
2021/05/14 14:00:47;;;;;;;0.29;0.10;;;;;;;17.65;43.25;98586.88;2016653;78;20849;-65
2021/05/14 14:03:50;;;;;;;0.60;0.10;;;;;;;17.60;42.69;98593.28;2021274;80;20244;-65
2021/05/14 14:06:53;;;;;;;0.64;0.20;;;;;;;17.61;42.03;98587.97;2021626;80;20195;-65
2021/05/14 14:09:55;;;;;;;0.19;0.10;;;;;;;17.75;42.51;98580.31;2021849;80;20696;-72
2021/05/14 14:13:03;;;;;;;0.38;0.10;;;;;;;17.95;41.71;98575.88;2021527;80;20367;-73
2021/05/14 14:16:06;;;;;;;0.39;0.10;;;;;;;17.99;41.70;98580.09;2019374;78;24018;-71
2021/05/14 14:19:08;;;;;;;0.36;0.10;;;;;;;17.85;41.53;98579.91;2017246;80;20219;-71
2021/05/14 14:22:11;;;;;;;1.11;0.20;;;;;;;17.72;42.16;98577.81;2016723;80;20168;-71
2021/05/14 14:25:18;;;;;;;0.40;0.20;;;;;;;17.71;44.20;98578.75;2016556;80;20201;-71
2021/05/14 14:28:21;;;;;;;0.30;0.10;;;;;;;17.60;43.35;98580.16;2017026;80;20187;-71
2021/05/14 14:31:26;;;;;;;1.41;0.16;;;;;;;17.75;42.38;98588.19;2017708;78;20277;-71
2021/05/14 14:34:29;;;;;;;0.20;0.10;;;;;;;17.86;41.86;98586.84;2022943;80;20269;-71
2021/05/14 14:37:32;;;;;;;2.75;0.20;;;;;;;18.11;40.81;98582.13;2022579;80;20269;-71